Time;durP1;ratioP1;P1;durP2;ratioP2;P2;SDS_P1;SDS_P2;PMS_P1;PMS_P2;Temp;Humidity;BMP_temperature;BMP_pressure;BME280_temperature;BME280_humidity;BME280_pressure;Samples;Min_cycle;Max_cycle;Signal;HPM_P1;HPM_P2
2024/01/12 00:00:12;;;;;;;7.80;6.40;;;;;;;12.60;46.11;97847.50;105841;1254;61282;-40
2024/01/12 00:02:39;;;;;;;10.40;6.40;;;;;;;12.60;46.08;97854.20;105919;1256;65850;-41
2024/01/12 00:05:07;;;;;;;6.70;5.80;;;;;;;12.60;46.18;97858.29;105923;1259;72591;-40
2024/01/12 00:07:33;;;;;;;7.40;6.40;;;;;;;12.61;46.09;97860.03;105884;1253;61285;-40
2024/01/12 00:10:00;;;;;;;8.20;6.50;;;;;;;12.61;46.13;97870.02;105676;1257;61347;-40
2024/01/12 00:12:26;;;;;;;7.20;6.40;;;;;;;12.62;46.12;97874.67;105513;1257;74629;-41
2024/01/12 00:14:53;;;;;;;8.20;6.30;;;;;;;12.62;46.11;97874.67;105502;1256;66140;-41
2024/01/12 00:17:20;;;;;;;7.10;6.40;;;;;;;12.63;46.12;97878.36;105706;1256;72561;-41
2024/01/12 00:19:47;;;;;;;6.90;6.20;;;;;;;12.64;46.13;97881.95;105503;1266;61238;-41
2024/01/12 00:22:13;;;;;;;7.60;6.00;;;;;;;12.64;46.10;97888.16;105560;1256;61898;-41
2024/01/12 00:24:40;;;;;;;8.00;6.00;;;;;;;12.64;46.11;97892.63;105518;1254;74575;-39
2024/01/12 00:27:07;;;;;;;6.70;6.00;;;;;;;12.64;46.08;97897.25;105903;1256;66198;-40
2024/01/12 00:29:34;;;;;;;7.60;6.20;;;;;;;12.65;46.10;97902.81;105814;1253;72435;-40
2024/01/12 00:32:00;;;;;;;6.60;5.80;;;;;;;12.65;46.12;97911.52;105626;1265;61314;-40
2024/01/12 00:34:27;;;;;;;7.10;5.90;;;;;;;12.66;46.15;97916.98;105675;1254;61231;-40
2024/01/12 00:36:53;;;;;;;9.20;6.30;;;;;;;12.66;46.07;97923.38;105689;1256;74642;-40
2024/01/12 00:39:20;;;;;;;7.50;6.10;;;;;;;12.66;46.00;97924.45;105832;1256;65054;-40
2024/01/12 00:41:47;;;;;;;8.70;5.80;;;;;;;12.66;46.08;97930.69;106146;1256;72382;-40
2024/01/12 00:44:13;;;;;;;6.50;5.80;;;;;;;12.67;46.22;97936.48;105646;1256;61350;-40
2024/01/12 00:46:42;;;;;;;6.60;5.70;;;;;;;12.67;46.14;97944.41;106317;1254;61210;-40
2024/01/12 00:49:09;;;;;;;7.40;5.60;;;;;;;12.68;46.06;97946.89;105875;1259;74691;-40
2024/01/12 00:51:36;;;;;;;7.20;6.00;;;;;;;12.68;46.23;97949.44;106509;1256;65912;-40
2024/01/12 00:54:03;;;;;;;6.70;6.00;;;;;;;12.69;46.16;97953.63;105815;1256;72381;-41
2024/01/12 00:56:30;;;;;;;8.50;6.10;;;;;;;12.69;46.08;97955.87;105890;1256;61549;-42
2024/01/12 00:58:57;;;;;;;7.50;5.90;;;;;;;12.69;46.12;97957.43;105736;1256;61317;-41
2024/01/12 01:01:23;;;;;;;7.90;6.00;;;;;;;12.70;46.04;97956.29;105879;1257;74521;-42
2024/01/12 01:03:50;;;;;;;6.50;5.50;;;;;;;12.70;46.06;97961.27;105887;1266;65872;-41
2024/01/12 01:06:17;;;;;;;6.60;5.90;;;;;;;12.70;46.11;97967.98;105668;1254;72383;-38
2024/01/12 01:08:45;;;;;;;7.50;5.40;;;;;;;12.71;46.00;97977.05;105847;1256;61336;-39
2024/01/12 01:11:12;;;;;;;6.80;5.80;;;;;;;12.71;46.13;97984.20;105650;1255;61257;-41
2024/01/12 01:13:39;;;;;;;7.30;5.50;;;;;;;12.72;46.02;97993.16;105814;1256;74686;-41
2024/01/12 01:16:05;;;;;;;7.40;5.80;;;;;;;12.72;46.04;98003.24;105652;1256;134442;-40
2024/01/12 01:18:32;;;;;;;7.40;5.90;;;;;;;12.72;46.10;98007.64;105853;1254;72320;-40
2024/01/12 01:21:03;;;;;;;7.20;5.70;;;;;;;12.73;45.99;98019.09;105847;1266;61235;-40
2024/01/12 01:23:30;;;;;;;7.40;5.90;;;;;;;12.73;46.08;98018.88;105933;1257;61359;-40
2024/01/12 01:25:58;;;;;;;7.50;5.90;;;;;;;12.74;46.03;98023.38;105889;1257;74495;-40
2024/01/12 01:28:25;;;;;;;6.80;5.20;;;;;;;12.73;46.01;98024.73;105910;1257;65932;-40
2024/01/12 01:30:52;;;;;;;6.50;5.80;;;;;;;12.73;46.01;98027.04;105879;1254;71582;-41
2024/01/12 01:33:19;;;;;;;6.60;5.20;;;;;;;12.74;46.02;98033.91;105691;1254;61286;-40
2024/01/12 01:35:46;;;;;;;6.00;5.30;;;;;;;12.74;46.01;98036.98;105645;1257;61197;-40
2024/01/12 01:38:12;;;;;;;6.60;5.40;;;;;;;12.74;46.01;98042.20;105670;1257;74682;-40
2024/01/12 01:40:39;;;;;;;7.10;5.90;;;;;;;12.74;46.13;98043.36;105619;1256;65985;-40
2024/01/12 01:43:09;;;;;;;8.90;5.50;;;;;;;12.74;46.21;98048.89;105545;1255;71533;-41
2024/01/12 01:45:36;;;;;;;8.10;5.50;;;;;;;12.75;46.09;98052.86;105668;1257;61228;-41
2024/01/12 01:48:04;;;;;;;6.30;5.50;;;;;;;12.75;46.16;98062.75;105893;1256;61336;-40
2024/01/12 01:50:32;;;;;;;5.70;5.10;;;;;;;12.75;45.95;98066.20;105829;1256;74438;-40
2024/01/12 01:52:58;;;;;;;6.90;5.40;;;;;;;12.75;46.05;98066.30;105943;1257;66200;-41
2024/01/12 01:55:25;;;;;;;5.60;5.00;;;;;;;12.76;46.09;98067.79;105888;1255;72891;-41
2024/01/12 01:57:52;;;;;;;7.00;5.60;;;;;;;12.75;46.18;98075.16;105926;1258;61336;-40
2024/01/12 02:00:19;;;;;;;8.50;5.70;;;;;;;12.76;46.11;98078.16;105674;1254;61924;-41
2024/01/12 02:02:45;;;;;;;6.40;5.60;;;;;;;12.76;46.03;98079.50;105762;1264;74518;-41
2024/01/12 02:05:13;;;;;;;7.50;5.40;;;;;;;12.76;46.09;98084.48;105626;1258;66058;-40
2024/01/12 02:07:41;;;;;;;6.30;5.30;;;;;;;12.76;45.99;98088.10;105517;1254;72474;-40
2024/01/12 02:10:09;;;;;;;5.80;5.20;;;;;;;12.76;46.01;98091.48;105646;1256;61257;-40
2024/01/12 02:12:36;;;;;;;5.70;4.90;;;;;;;12.77;46.11;98094.10;105633;1254;61336;-40
2024/01/12 02:15:07;;;;;;;8.50;5.50;;;;;;;12.77;46.02;98092.43;105827;1256;74559;-41
2024/01/12 02:17:34;;;;;;;8.50;5.40;;;;;;;12.77;45.98;98095.18;105904;1257;66338;-41
2024/01/12 02:20:01;;;;;;;5.90;5.00;;;;;;;12.77;46.07;98094.11;105939;1257;72397;-41
2024/01/12 02:22:27;;;;;;;7.50;5.20;;;;;;;12.77;46.08;98098.48;105870;1257;61356;-41
2024/01/12 02:24:54;;;;;;;6.90;5.00;;;;;;;12.77;46.03;98106.02;105609;1254;61362;-40
2024/01/12 02:27:20;;;;;;;6.40;5.60;;;;;;;12.77;45.92;98114.63;105622;1254;61250;-40
2024/01/12 02:29:49;;;;;;;6.80;5.30;;;;;;;12.77;45.99;98121.83;105435;1254;61465;-40
2024/01/12 02:32:16;;;;;;;7.00;5.50;;;;;;;12.78;45.95;98130.42;105531;1254;72412;-40
2024/01/12 02:34:42;;;;;;;6.00;5.10;;;;;;;12.77;45.98;98140.89;105543;1258;61343;-40
2024/01/12 02:37:09;;;;;;;5.50;5.00;;;;;;;12.77;46.03;98147.04;105503;1254;61304;-40
2024/01/12 02:39:35;;;;;;;6.70;5.00;;;;;;;12.77;45.95;98151.80;105755;1253;74303;-40
2024/01/12 02:42:02;;;;;;;6.20;5.00;;;;;;;12.77;46.05;98159.88;105907;1257;66165;-40
2024/01/12 02:44:29;;;;;;;6.40;5.00;;;;;;;12.77;46.03;98159.94;105634;1254;72389;-41
2024/01/12 02:46:56;;;;;;;5.80;4.90;;;;;;;12.77;46.06;98164.02;105872;1257;61235;-41
2024/01/12 02:49:22;;;;;;;6.10;5.10;;;;;;;12.77;45.96;98164.99;105863;1254;61420;-40
2024/01/12 02:51:49;;;;;;;7.80;4.80;;;;;;;12.77;46.15;98164.56;105866;1257;74570;-40
2024/01/12 02:54:15;;;;;;;6.00;4.90;;;;;;;12.77;46.10;98164.92;105887;1257;65649;-41
2024/01/12 02:56:42;;;;;;;7.00;5.10;;;;;;;12.77;45.88;98172.30;106110;1254;71573;-40
2024/01/12 02:59:09;;;;;;;6.60;5.20;;;;;;;12.77;45.99;98172.00;105626;1256;61366;-40
2024/01/12 03:01:36;;;;;;;5.70;5.00;;;;;;;12.77;45.98;98175.20;105540;1256;61330;-39
2024/01/12 03:04:02;;;;;;;6.20;4.80;;;;;;;12.77;46.02;98174.14;105751;1254;61333;-40
2024/01/12 03:06:29;;;;;;;5.30;4.80;;;;;;;12.76;45.97;98173.25;105916;1256;66106;-40
2024/01/12 03:08:56;;;;;;;7.90;4.90;;;;;;;12.76;45.92;98173.15;105856;1254;72288;-40
2024/01/12 03:11:23;;;;;;;5.00;4.50;;;;;;;12.76;46.06;98172.77;105764;1257;61232;-40
2024/01/12 03:13:50;;;;;;;6.10;4.90;;;;;;;12.75;46.04;98176.05;105522;1254;61254;-40
2024/01/12 03:16:20;;;;;;;5.20;4.60;;;;;;;12.75;46.11;98177.56;105552;1253;74318;-40
2024/01/12 03:18:47;;;;;;;5.40;4.60;;;;;;;12.75;46.07;98179.02;105529;1257;66067;-40
2024/01/12 03:21:15;;;;;;;6.10;4.80;;;;;;;12.75;45.97;98178.52;105641;1256;72324;-40
2024/01/12 03:23:41;;;;;;;6.50;5.20;;;;;;;12.74;45.99;98179.04;105562;1254;61193;-40
2024/01/12 03:26:08;;;;;;;5.50;4.50;;;;;;;12.74;45.90;98182.65;105680;1256;61922;-41
2024/01/12 03:28:35;;;;;;;5.90;4.40;;;;;;;12.74;45.90;98188.08;105628;1254;74376;-41
2024/01/12 03:31:03;;;;;;;4.80;4.20;;;;;;;12.73;45.99;98194.21;105886;1256;66073;-41
2024/01/12 03:33:29;;;;;;;5.60;4.40;;;;;;;12.73;45.97;98198.35;105902;1254;72534;-41
2024/01/12 03:35:57;;;;;;;5.50;4.70;;;;;;;12.73;46.07;98208.40;105925;1257;61244;-41
2024/01/12 03:38:24;;;;;;;5.60;4.60;;;;;;;12.73;45.96;98210.92;105977;1257;61247;-40
2024/01/12 03:40:51;;;;;;;6.80;4.90;;;;;;;12.72;45.91;98214.33;105921;1256;73570;-41
2024/01/12 03:43:17;;;;;;;4.90;4.40;;;;;;;12.72;46.03;98214.48;105845;1254;61227;-39
2024/01/12 03:45:44;;;;;;;5.60;4.60;;;;;;;12.72;46.14;98218.30;105846;1254;61969;-40
2024/01/12 03:48:11;;;;;;;5.30;4.40;;;;;;;12.71;45.93;98215.80;105740;1257;61327;-41
2024/01/12 03:50:38;;;;;;;5.50;4.60;;;;;;;12.72;46.09;98216.00;105589;1257;61969;-40
2024/01/12 03:53:05;;;;;;;6.60;4.80;;;;;;;12.71;46.11;98221.46;105545;1256;73324;-40
2024/01/12 03:55:32;;;;;;;4.80;4.30;;;;;;;12.71;46.03;98224.09;105507;1255;65076;-40
2024/01/12 03:57:59;;;;;;;4.80;4.30;;;;;;;12.71;46.00;98226.23;105581;1254;72416;-41
2024/01/12 04:00:26;;;;;;;4.90;4.30;;;;;;;12.70;46.02;98228.83;105552;1256;61254;-40
2024/01/12 04:02:52;;;;;;;5.10;4.30;;;;;;;12.70;45.98;98233.39;105596;1252;61343;-41
2024/01/12 04:05:19;;;;;;;5.70;4.20;;;;;;;12.70;45.91;98236.94;105672;1255;74389;-41
2024/01/12 04:07:46;;;;;;;5.10;4.10;;;;;;;12.70;46.07;98242.91;105911;1255;65010;-40
2024/01/12 04:10:13;;;;;;;5.30;4.40;;;;;;;12.69;45.95;98246.58;105920;1257;72390;-40
2024/01/12 04:12:39;;;;;;;4.80;4.30;;;;;;;12.70;46.08;98247.98;105938;1256;61360;-40
2024/01/12 04:15:09;;;;;;;5.10;4.50;;;;;;;12.69;46.18;98254.33;105628;1254;61316;-40
2024/01/12 04:17:37;;;;;;;5.80;4.60;;;;;;;12.69;46.18;98267.98;105660;1252;73286;-40
2024/01/12 04:20:04;;;;;;;4.70;4.20;;;;;;;12.69;46.01;98272.51;105706;1256;65096;-41
2024/01/12 04:22:31;;;;;;;4.70;4.00;;;;;;;12.69;46.15;98276.86;105695;1253;72585;-41
2024/01/12 04:24:58;;;;;;;6.00;4.30;;;;;;;12.68;46.04;98274.77;105899;1256;61257;-39
2024/01/12 04:27:26;;;;;;;5.00;4.10;;;;;;;12.68;46.25;98282.28;105834;1254;61326;-40
2024/01/12 04:29:53;;;;;;;5.00;4.20;;;;;;;12.68;45.99;98286.80;105665;1256;74524;-40
2024/01/12 04:32:20;;;;;;;7.30;4.80;;;;;;;12.68;46.11;98287.40;105842;1256;65815;-40
2024/01/12 04:34:46;;;;;;;5.80;4.30;;;;;;;12.67;46.06;98291.23;105633;1254;71937;-40
2024/01/12 04:37:13;;;;;;;6.10;4.60;;;;;;;12.68;46.17;98298.86;105649;1256;61251;-40
2024/01/12 04:39:41;;;;;;;6.20;4.00;;;;;;;12.67;46.00;98293.50;105588;1254;61276;-40
2024/01/12 04:42:08;;;;;;;4.40;3.50;;;;;;;12.67;46.02;98304.25;105865;1256;74382;-40
2024/01/12 04:44:35;;;;;;;5.20;4.40;;;;;;;12.67;46.03;98311.30;105819;1256;66016;-41
2024/01/12 04:47:01;;;;;;;5.30;4.20;;;;;;;12.67;46.07;98317.36;105918;1256;72125;-41
2024/01/12 04:49:28;;;;;;;7.50;4.10;;;;;;;12.66;46.09;98319.42;105812;1257;61292;-41
2024/01/12 04:51:55;;;;;;;5.70;4.30;;;;;;;12.66;46.04;98323.71;105740;1253;61513;-41
2024/01/12 04:54:22;;;;;;;4.70;4.20;;;;;;;12.66;46.06;98325.38;105948;1253;74606;-41
2024/01/12 04:56:48;;;;;;;5.60;4.30;;;;;;;12.66;46.09;98333.45;105681;1256;66140;-41
2024/01/12 04:59:15;;;;;;;5.40;4.20;;;;;;;12.66;45.97;98335.65;105510;1254;72515;-41
2024/01/12 05:01:42;;;;;;;5.00;4.00;;;;;;;12.65;46.01;98336.25;106022;1256;61337;-40
2024/01/12 05:04:09;;;;;;;6.30;4.40;;;;;;;12.65;46.00;98333.34;105772;1254;61327;-40
2024/01/12 05:06:36;;;;;;;4.20;3.70;;;;;;;12.65;46.22;98335.17;106350;1254;75072;-40
2024/01/12 05:09:06;;;;;;;4.20;3.80;;;;;;;12.65;46.02;98338.45;105622;1256;66238;-41
2024/01/12 05:11:33;;;;;;;5.10;3.70;;;;;;;12.65;45.96;98343.77;105560;1254;72628;-41
2024/01/12 05:13:59;;;;;;;4.10;3.70;;;;;;;12.65;46.03;98349.04;105634;1257;61231;-41
2024/01/12 05:16:26;;;;;;;6.40;4.00;;;;;;;12.65;46.04;98347.27;105569;1254;61435;-40
2024/01/12 05:18:53;;;;;;;4.40;3.70;;;;;;;12.65;46.07;98348.41;105889;1256;73561;-39
2024/01/12 05:21:21;;;;;;;4.90;4.00;;;;;;;12.64;46.04;98346.33;105847;1256;65215;-40
2024/01/12 05:23:47;;;;;;;4.40;3.70;;;;;;;12.65;45.97;98354.64;105767;1253;61439;-39
2024/01/12 05:26:14;;;;;;;4.10;3.70;;;;;;;12.64;46.01;98358.30;105602;1256;61270;-41
2024/01/12 05:28:41;;;;;;;5.50;3.80;;;;;;;12.64;45.98;98356.75;105656;1252;61256;-41
2024/01/12 05:31:11;;;;;;;5.00;4.00;;;;;;;12.64;46.09;98358.69;105724;1254;74395;-42
2024/01/12 05:33:37;;;;;;;6.50;4.20;;;;;;;12.64;46.01;98362.40;105552;1259;66327;-39
2024/01/12 05:36:05;;;;;;;6.10;3.50;;;;;;;12.64;45.91;98361.48;105718;1253;72352;-40
2024/01/12 05:38:32;;;;;;;4.40;3.90;;;;;;;12.63;46.00;98369.13;105837;1256;61231;-40
2024/01/12 05:40:59;;;;;;;4.40;3.80;;;;;;;12.63;45.96;98372.35;105802;1257;61374;-40
2024/01/12 05:43:26;;;;;;;5.90;4.00;;;;;;;12.63;46.07;98372.20;105766;1253;74557;-41
2024/01/12 05:45:53;;;;;;;3.90;3.50;;;;;;;12.63;45.98;98368.80;105614;1256;65040;-41
2024/01/12 05:48:19;;;;;;;5.30;3.80;;;;;;;12.63;46.05;98373.64;105568;1253;72272;-40
2024/01/12 05:50:46;;;;;;;4.40;4.00;;;;;;;12.63;46.08;98371.66;105593;1256;61243;-41
2024/01/12 05:53:13;;;;;;;5.00;4.00;;;;;;;12.63;45.98;98375.33;105689;1254;61231;-40
2024/01/12 05:55:40;;;;;;;4.90;4.10;;;;;;;12.63;45.94;98376.55;105763;1256;74545;-40
2024/01/12 05:58:06;;;;;;;4.40;3.90;;;;;;;12.63;45.95;98376.17;105927;1256;65408;-41
2024/01/12 06:00:33;;;;;;;4.90;3.90;;;;;;;12.62;45.96;98371.08;105890;1254;72606;-41
2024/01/12 06:02:59;;;;;;;4.30;3.70;;;;;;;12.62;45.96;98368.84;105608;1256;61342;-40
2024/01/12 06:05:26;;;;;;;7.30;3.50;;;;;;;12.63;45.90;98373.70;105615;1253;61326;-41
2024/01/12 06:07:54;;;;;;;3.90;3.50;;;;;;;12.61;45.96;98365.66;105890;1253;74334;-41
2024/01/12 06:10:20;;;;;;;4.50;3.60;;;;;;;12.61;46.00;98369.80;105818;1256;66144;-40
2024/01/12 06:12:47;;;;;;;4.60;3.70;;;;;;;12.62;45.97;98372.81;105691;1254;72401;-40
2024/01/12 06:15:14;;;;;;;4.80;3.50;;;;;;;12.61;46.02;98371.42;105714;1256;61280;-41
2024/01/12 06:17:40;;;;;;;5.00;3.60;;;;;;;12.61;46.09;98370.02;105603;1252;61313;-40
2024/01/12 06:20:08;;;;;;;4.70;3.80;;;;;;;12.62;46.01;98371.95;105833;1254;74418;-40
2024/01/12 06:22:35;;;;;;;4.40;3.50;;;;;;;12.61;45.94;98376.31;105756;1256;64785;-39
2024/01/12 06:25:01;;;;;;;4.90;3.70;;;;;;;12.61;46.02;98379.17;105560;1253;72655;-40
2024/01/12 06:27:29;;;;;;;4.40;3.30;;;;;;;12.61;46.06;98383.14;105635;1253;61224;-40
2024/01/12 06:29:55;;;;;;;3.90;3.40;;;;;;;12.61;46.02;98386.52;105776;1254;61379;-41
2024/01/12 06:32:22;;;;;;;4.50;3.30;;;;;;;12.61;46.03;98387.56;105872;1253;73665;-40
2024/01/12 06:34:48;;;;;;;4.20;3.50;;;;;;;12.61;45.97;98395.55;105643;1256;65369;-40
2024/01/12 06:37:15;;;;;;;4.80;3.50;;;;;;;12.61;45.88;98390.65;105699;1252;72478;-39
2024/01/12 06:39:42;;;;;;;4.40;3.70;;;;;;;12.61;46.08;98386.14;105792;1256;61257;-41
2024/01/12 06:42:09;;;;;;;3.90;3.50;;;;;;;12.61;46.08;98385.29;105676;1253;61465;-41
2024/01/12 06:44:40;;;;;;;3.80;3.20;;;;;;;12.62;46.08;98380.13;105686;1256;74392;-41
2024/01/12 06:47:10;;;;;;;4.30;3.40;;;;;;;12.61;46.16;98372.48;105630;1256;66088;-41
2024/01/12 06:49:36;;;;;;;6.10;3.70;;;;;;;12.61;45.97;98375.71;105667;1254;72414;-41
2024/01/12 06:52:04;;;;;;;4.40;3.50;;;;;;;12.62;46.14;98376.58;105857;1256;61250;-40
2024/01/12 06:54:31;;;;;;;3.90;3.40;;;;;;;12.62;46.07;98378.36;105868;1253;61184;-41
2024/01/12 06:56:58;;;;;;;3.90;3.30;;;;;;;12.62;46.00;98383.18;105626;1256;74549;-40
2024/01/12 06:59:25;;;;;;;4.50;3.10;;;;;;;12.62;46.00;98387.20;105701;1256;64785;-40
2024/01/12 07:01:51;;;;;;;4.50;3.50;;;;;;;12.62;45.98;98391.55;105886;1253;72644;-39
2024/01/12 07:04:18;;;;;;;4.20;3.50;;;;;;;12.62;45.96;98393.66;105573;1256;61155;-41
2024/01/12 07:06:46;;;;;;;4.00;3.30;;;;;;;12.63;46.09;98397.30;106078;1252;61260;-39
2024/01/12 07:09:14;;;;;;;3.90;3.40;;;;;;;12.63;46.04;98393.05;105695;1254;75224;-39
2024/01/12 07:11:43;;;;;;;4.10;3.50;;;;;;;12.63;46.00;98397.39;106113;1252;64006;-41
2024/01/12 07:14:10;;;;;;;3.80;3.40;;;;;;;12.63;46.08;98400.67;105722;1254;72578;-38
2024/01/12 07:16:37;;;;;;;4.20;3.50;;;;;;;12.63;45.94;98406.32;105818;1252;61330;-41
2024/01/12 07:19:04;;;;;;;3.70;3.20;;;;;;;12.64;46.07;98411.25;105728;1253;61395;-40
2024/01/12 07:21:32;;;;;;;4.90;3.90;;;;;;;12.64;46.00;98414.75;105614;1256;74301;-41
2024/01/12 07:24:00;;;;;;;4.30;3.30;;;;;;;12.64;45.96;98414.36;105606;1256;65985;-39
2024/01/12 07:26:27;;;;;;;3.80;3.30;;;;;;;12.65;45.91;98418.00;105704;1253;72681;-39
2024/01/12 07:28:53;;;;;;;3.90;3.40;;;;;;;12.65;45.92;98422.30;105709;1256;61309;-41
2024/01/12 07:31:20;;;;;;;5.00;3.50;;;;;;;12.66;45.92;98425.09;105602;1253;61228;-40
2024/01/12 07:33:47;;;;;;;4.70;3.40;;;;;;;12.65;46.07;98423.70;105775;1256;74583;-39
2024/01/12 07:36:14;;;;;;;5.00;3.50;;;;;;;12.66;46.01;98424.45;105967;1256;66073;-40
2024/01/12 07:38:40;;;;;;;4.00;3.40;;;;;;;12.66;45.92;98424.66;105894;1253;71843;-40
2024/01/12 07:41:07;;;;;;;4.60;3.40;;;;;;;12.66;45.93;98420.09;105639;1256;61186;-40
2024/01/12 07:43:34;;;;;;;4.20;3.60;;;;;;;12.67;46.03;98426.73;105764;1253;61324;-40
2024/01/12 07:46:00;;;;;;;4.70;3.60;;;;;;;12.68;46.05;98428.45;105615;1254;74663;-40
2024/01/12 07:48:27;;;;;;;3.90;3.20;;;;;;;12.69;45.97;98429.51;105743;1256;66081;-40
2024/01/12 07:50:54;;;;;;;6.30;3.20;;;;;;;12.68;45.98;98425.59;105892;1254;72379;-42
2024/01/12 07:53:21;;;;;;;4.20;3.40;;;;;;;12.69;45.96;98430.08;105708;1256;61248;-40
2024/01/12 07:55:49;;;;;;;4.10;3.40;;;;;;;12.70;46.02;98432.59;105801;1253;61336;-39
2024/01/12 07:58:18;;;;;;;3.90;3.20;;;;;;;12.71;45.95;98438.65;105752;1253;74642;-40
2024/01/12 08:00:45;;;;;;;5.00;3.60;;;;;;;12.72;45.84;98440.14;105776;1253;66032;-40
2024/01/12 08:03:12;;;;;;;5.00;3.60;;;;;;;12.72;45.98;98441.48;105680;1253;73553;-39
2024/01/12 08:05:38;;;;;;;3.80;3.40;;;;;;;12.73;46.03;98447.71;105838;1256;61360;-40
2024/01/12 08:08:05;;;;;;;4.00;3.30;;;;;;;12.74;46.00;98447.11;105799;1252;61415;-40
2024/01/12 08:10:32;;;;;;;4.90;3.30;;;;;;;12.75;45.98;98446.23;105644;1255;75768;-41
2024/01/12 08:12:59;;;;;;;3.80;3.30;;;;;;;12.75;45.85;98444.40;105614;1256;67032;-40
2024/01/12 08:15:26;;;;;;;4.50;3.30;;;;;;;12.76;45.90;98450.30;105814;1253;72639;-40
2024/01/12 08:17:52;;;;;;;3.20;2.90;;;;;;;12.76;45.93;98451.38;105867;1256;61340;-41
2024/01/12 08:20:19;;;;;;;4.50;3.20;;;;;;;12.77;45.84;98455.27;105713;1252;61658;-39
2024/01/12 08:22:46;;;;;;;3.40;3.10;;;;;;;12.78;45.81;98462.10;105784;1256;74638;-40
2024/01/12 08:25:12;;;;;;;4.00;3.50;;;;;;;12.79;45.78;98467.99;105765;1256;66176;-41
2024/01/12 08:27:39;;;;;;;4.10;3.30;;;;;;;12.79;45.69;98477.39;105686;1253;72492;-41
2024/01/12 08:30:09;;;;;;;3.50;2.90;;;;;;;12.80;45.77;98471.09;105620;1256;61228;-41
2024/01/12 08:32:37;;;;;;;3.50;3.10;;;;;;;12.81;45.78;98463.07;105875;1253;61247;-40
2024/01/12 08:35:06;;;;;;;5.30;3.60;;;;;;;12.81;45.84;98463.69;105716;1256;75615;-41
2024/01/12 08:37:33;;;;;;;4.50;3.40;;;;;;;12.83;45.67;98467.02;105866;1256;65979;-40
2024/01/12 08:40:00;;;;;;;3.60;3.10;;;;;;;12.84;45.86;98473.13;105870;1253;72431;-40
2024/01/12 08:42:27;;;;;;;3.90;3.30;;;;;;;12.84;45.79;98480.16;105699;1256;61228;-40
2024/01/12 08:44:53;;;;;;;3.50;3.10;;;;;;;12.85;45.78;98480.48;105738;1252;61309;-40
2024/01/12 08:47:21;;;;;;;3.50;3.10;;;;;;;12.85;45.62;98477.99;105870;1253;75226;-40
2024/01/12 08:49:47;;;;;;;4.40;3.50;;;;;;;12.86;45.80;98472.65;105779;1256;66908;-40
2024/01/12 08:52:14;;;;;;;4.60;3.20;;;;;;;12.87;45.73;98473.45;105700;1253;73113;-39
2024/01/12 08:54:42;;;;;;;3.60;3.10;;;;;;;12.88;45.80;98470.77;105636;1253;61282;-40
2024/01/12 08:57:08;;;;;;;4.00;3.10;;;;;;;12.88;45.82;98470.95;105857;1252;61491;-39
2024/01/12 08:59:35;;;;;;;3.40;3.00;;;;;;;12.90;45.75;98476.15;105662;1253;75358;-40
2024/01/12 09:02:02;;;;;;;4.60;3.20;;;;;;;12.91;45.68;98472.80;105705;1256;66087;-40
2024/01/12 09:04:31;;;;;;;4.10;3.10;;;;;;;12.92;45.77;98471.39;105594;1254;72574;-41
2024/01/12 09:06:57;;;;;;;4.10;2.80;;;;;;;12.93;45.67;98470.63;105505;1253;61322;-45
2024/01/12 09:09:24;;;;;;;4.10;3.30;;;;;;;12.96;45.77;98472.98;105683;1257;61254;-43
2024/01/12 09:11:51;;;;;;;4.00;3.30;;;;;;;12.98;45.96;98467.09;105624;1257;75211;-39
2024/01/12 09:14:17;;;;;;;5.30;3.30;;;;;;;13.01;46.13;98465.55;105609;1256;66279;-41
2024/01/12 09:16:44;;;;;;;3.90;3.20;;;;;;;13.04;46.09;98466.95;106059;1253;72409;-43
2024/01/12 09:19:11;;;;;;;4.30;3.20;;;;;;;13.07;46.19;98459.98;105679;1256;61285;-45
2024/01/12 09:21:38;;;;;;;6.40;3.40;;;;;;;13.10;46.10;98456.38;106312;1256;61128;-43
2024/01/12 09:24:05;;;;;;;4.40;3.40;;;;;;;13.13;46.23;98455.53;105943;1253;75425;-43
2024/01/12 09:26:32;;;;;;;4.30;3.40;;;;;;;13.16;46.34;98455.48;105746;1256;66926;-42
2024/01/12 09:28:59;;;;;;;3.70;3.20;;;;;;;13.17;46.27;98458.04;105536;1253;72573;-42
2024/01/12 09:31:26;;;;;;;4.60;3.80;;;;;;;13.20;46.17;98457.45;105648;1256;61286;-41
2024/01/12 09:33:53;;;;;;;5.50;3.20;;;;;;;13.22;46.38;98456.71;105596;1257;61230;-39
2024/01/12 09:36:20;;;;;;;4.50;3.40;;;;;;;13.24;46.20;98453.73;105489;1257;75381;-42
2024/01/12 09:38:47;;;;;;;6.40;3.30;;;;;;;13.26;46.13;98451.10;105526;1256;66308;-41
2024/01/12 09:41:14;;;;;;;4.30;3.30;;;;;;;13.29;46.14;98456.70;105494;1253;72383;-44
2024/01/12 09:43:41;;;;;;;5.70;3.50;;;;;;;13.31;46.23;98456.76;105448;1256;61379;-43
2024/01/12 09:46:08;;;;;;;3.30;3.00;;;;;;;13.33;46.18;98459.96;105422;1253;61417;-43
2024/01/12 09:48:35;;;;;;;5.10;3.90;;;;;;;13.35;46.11;98455.52;105601;1258;74571;-43
2024/01/12 09:51:02;;;;;;;5.60;3.40;;;;;;;13.37;46.02;98454.60;105534;1257;65709;-42
2024/01/12 09:53:31;;;;;;;5.30;3.80;;;;;;;13.39;46.14;98458.33;105539;1253;73900;-41
2024/01/12 09:55:59;;;;;;;4.00;3.40;;;;;;;13.42;46.04;98470.08;105716;1253;61273;-45
2024/01/12 09:58:38;;;;;;;4.90;3.90;;;;;;;13.43;46.13;98467.78;105509;1253;61173;-46
2024/01/12 10:01:05;;;;;;;4.30;3.20;;;;;;;13.46;45.98;98474.53;105540;1253;72678;-39
2024/01/12 10:03:31;;;;;;;5.10;3.70;;;;;;;13.46;46.14;98472.89;105557;1259;66060;-42
2024/01/12 10:05:58;;;;;;;4.90;3.50;;;;;;;13.49;46.16;98470.01;105748;1253;73415;-43
2024/01/12 10:08:37;;;;;;;4.40;3.20;;;;;;;13.51;46.26;98466.46;105667;1256;61331;-56
2024/01/12 10:11:04;;;;;;;5.30;3.30;;;;;;;13.54;46.39;98468.60;105618;1251;61257;-48
2024/01/12 10:13:30;;;;;;;4.00;3.60;;;;;;;13.57;46.50;98467.59;105733;1256;74543;-45
2024/01/12 10:15:57;;;;;;;6.90;3.50;;;;;;;13.60;46.69;98466.92;105750;1255;66845;-41
2024/01/12 10:18:24;;;;;;;3.90;3.40;;;;;;;13.63;46.68;98466.55;105358;1253;71272;-44
2024/01/12 10:20:51;;;;;;;5.10;3.60;;;;;;;13.67;46.86;98468.59;105761;1255;61279;-40
2024/01/12 10:23:20;;;;;;;6.20;3.60;;;;;;;13.69;46.93;98461.27;105929;1253;61238;-44
2024/01/12 10:25:59;;;;;;;5.10;3.50;;;;;;;13.72;46.98;98461.97;105571;1256;75643;-49
2024/01/12 10:28:32;;;;;;;8.30;3.70;;;;;;;13.75;47.23;98461.22;105903;1251;66906;-41
2024/01/12 10:31:03;;;;;;;4.70;3.70;;;;;;;13.78;47.20;98455.52;105723;1253;72690;-49
2024/01/12 10:33:32;;;;;;;3.80;3.10;;;;;;;13.80;47.33;98446.48;105896;1256;61334;-44
2024/01/12 10:36:05;;;;;;;5.00;3.40;;;;;;;13.83;47.31;98448.30;105796;1251;61170;-44
2024/01/12 10:38:33;;;;;;;4.20;3.10;;;;;;;13.85;47.37;98445.08;105813;1256;75566;-43
2024/01/12 10:41:00;;;;;;;5.10;3.30;;;;;;;13.88;47.40;98442.38;105628;1251;66615;-41
2024/01/12 10:43:27;;;;;;;4.90;3.40;;;;;;;13.91;47.46;98439.69;105522;1253;73687;-42
2024/01/12 10:45:57;;;;;;;3.60;3.10;;;;;;;13.93;47.54;98439.59;105773;1256;61775;-42
2024/01/12 10:48:24;;;;;;;4.40;3.30;;;;;;;13.95;47.54;98449.67;105746;1253;61279;-41
2024/01/12 10:50:55;;;;;;;3.60;2.70;;;;;;;13.97;47.73;98449.19;105818;1253;74599;-44
2024/01/12 10:53:28;;;;;;;4.10;2.90;;;;;;;13.98;47.61;98449.44;105539;1251;65570;-41
2024/01/12 10:55:58;;;;;;;4.40;3.00;;;;;;;14.00;47.64;98450.66;105616;1253;73660;-44
2024/01/12 10:58:24;;;;;;;3.40;2.70;;;;;;;14.03;47.77;98452.36;105851;1256;61218;-44
2024/01/12 11:00:52;;;;;;;3.90;2.70;;;;;;;14.04;47.79;98443.18;105522;1253;61468;-42
2024/01/12 11:03:19;;;;;;;4.40;2.80;;;;;;;14.05;47.78;98439.11;105615;1253;74584;-48
2024/01/12 11:05:49;;;;;;;3.60;2.80;;;;;;;14.06;47.83;98434.41;105705;1256;66614;-40
2024/01/12 11:08:16;;;;;;;3.60;3.10;;;;;;;14.08;47.89;98432.42;105696;1253;73474;-42
2024/01/12 11:10:51;;;;;;;4.20;2.70;;;;;;;14.10;47.94;98431.90;105696;1258;63899;-44
2024/01/12 11:13:17;;;;;;;6.40;2.80;;;;;;;14.11;47.88;98428.98;105792;1256;61269;-47
2024/01/12 11:15:45;;;;;;;4.20;3.00;;;;;;;14.12;47.67;98425.77;105695;1251;74474;-44
2024/01/12 11:18:13;;;;;;;4.90;3.20;;;;;;;14.13;47.36;98421.86;105922;1256;65735;-47
2024/01/12 11:20:43;;;;;;;4.40;3.30;;;;;;;14.14;46.85;98420.98;105753;1251;72739;-45
2024/01/12 11:23:10;;;;;;;5.50;3.50;;;;;;;14.14;46.60;98418.45;105736;1256;61327;-42